Time;durP1;ratioP1;P1;durP2;ratioP2;P2;SDS_P1;SDS_P2;PMS_P1;PMS_P2;Temp;Humidity;BMP_temperature;BMP_pressure;BME280_temperature;BME280_humidity;BME280_pressure;Samples;Min_cycle;Max_cycle;Signal;HPM_P1;HPM_P2
2021/04/22 00:02:06;;;;;;;4.13;3.10;;;22.40;49.30;;;;;;5028506;28;20175;-83
2021/04/22 00:04:33;;;;;;;3.33;2.73;;;22.40;49.10;;;;;;5046756;28;20152;-83
2021/04/22 00:06:58;;;;;;;3.60;2.70;;;22.40;49.40;;;;;;5029099;28;20426;-83
2021/04/22 00:09:24;;;;;;;3.53;2.67;;;22.40;49.60;;;;;;5029591;28;20418;-83
2021/04/22 00:11:50;;;;;;;4.70;2.60;;;22.40;49.40;;;;;;5028657;28;20192;-83
2021/04/22 00:14:16;;;;;;;4.17;3.37;;;22.40;49.60;;;;;;5028345;28;20207;-83
2021/04/22 00:16:42;;;;;;;3.97;2.73;;;22.40;49.20;;;;;;5046583;28;20406;-83
2021/04/22 00:19:08;;;;;;;4.53;2.50;;;22.40;49.40;;;;;;5046483;28;20398;-83
2021/04/22 00:21:34;;;;;;;2.97;2.60;;;22.40;49.40;;;;;;5028447;28;20476;-84
2021/04/22 00:24:00;;;;;;;3.00;2.27;;;22.40;49.20;;;;;;5029008;28;20179;-83
2021/04/22 00:26:59;;;;;;;3.40;2.80;;;22.40;49.50;;;;;;5047056;28;20175;-82
2021/04/22 00:29:27;;;;;;;3.63;3.33;;;22.40;49.10;;;;;;5029317;28;20571;-82
2021/04/22 00:31:53;;;;;;;4.13;2.53;;;22.40;49.50;;;;;;5028337;28;20422;-82
2021/04/22 00:34:19;;;;;;;2.93;2.50;;;22.40;49.60;;;;;;5046261;28;20450;-83
2021/04/22 00:36:44;;;;;;;2.90;2.60;;;22.40;49.40;;;;;;5037321;28;20198;-83
2021/04/22 00:39:12;;;;;;;3.77;2.50;;;22.40;49.30;;;;;;5046293;28;20174;-83
2021/04/22 00:41:37;;;;;;;2.57;2.10;;;22.40;49.30;;;;;;5028653;28;20167;-83
2021/04/22 00:44:05;;;;;;;3.27;2.50;;;22.40;49.40;;;;;;5046429;28;20421;-83
2021/04/22 00:46:31;;;;;;;3.77;3.10;;;22.40;49.20;;;;;;5028925;28;20247;-83
2021/04/22 00:48:57;;;;;;;5.63;3.10;;;22.30;49.10;;;;;;5029760;28;20414;-83
2021/04/22 00:51:23;;;;;;;5.50;2.60;;;22.40;49.40;;;;;;5050423;28;20472;-83
2021/04/22 00:53:49;;;;;;;2.57;2.30;;;22.50;49.30;;;;;;5028955;28;20218;-83
2021/04/22 00:56:16;;;;;;;4.20;2.53;;;22.40;49.10;;;;;;5030981;28;20176;-83
2021/04/22 00:58:41;;;;;;;3.00;2.70;;;22.40;49.10;;;;;;5031368;28;20445;-83
2021/04/22 01:01:07;;;;;;;3.30;2.67;;;22.40;49.30;;;;;;5028390;28;20944;-83
2021/04/22 01:03:33;;;;;;;4.10;2.60;;;22.40;49.30;;;;;;5049917;28;20230;-83
2021/04/22 01:06:03;;;;;;;2.93;2.40;;;22.40;49.40;;;;;;5030561;28;20197;-83
2021/04/22 01:08:28;;;;;;;3.00;2.57;;;22.40;49.20;;;;;;5027634;28;20176;-83
2021/04/22 01:10:54;;;;;;;3.57;3.00;;;22.40;49.50;;;;;;5026888;28;20418;-83
2021/04/22 01:13:21;;;;;;;3.87;2.60;;;22.40;49.60;;;;;;5028456;28;20677;-83
2021/04/22 01:15:48;;;;;;;3.23;2.50;;;22.40;49.20;;;;;;5028683;28;20176;-83
2021/04/22 01:18:15;;;;;;;3.20;2.50;;;22.40;49.30;;;;;;5028591;28;20895;-83
2021/04/22 01:20:48;;;;;;;5.20;2.70;;;22.40;49.60;;;;;;5047144;28;20418;-83
2021/04/22 01:23:13;;;;;;;2.83;2.33;;;22.40;49.30;;;;;;5029698;28;20419;-84
2021/04/22 01:25:47;;;;;;;2.63;2.40;;;22.30;49.30;;;;;;5029664;28;20422;-82
2021/04/22 01:28:15;;;;;;;2.83;2.60;;;22.30;49.30;;;;;;5046426;28;20164;-87
2021/04/22 01:30:47;;;;;;;2.43;2.23;;;22.30;49.30;;;;;;5028170;28;20506;-86
2021/04/22 01:33:16;;;;;;;3.20;2.80;;;22.30;49.20;;;;;;5049679;28;20446;-86
2021/04/22 01:35:45;;;;;;;4.07;2.80;;;22.30;49.30;;;;;;5030247;28;20550;-86
2021/04/22 01:38:12;;;;;;;3.00;2.43;;;22.30;49.20;;;;;;5028793;28;20423;-85
2021/04/22 01:40:38;;;;;;;3.40;2.73;;;22.40;49.30;;;;;;5050784;28;20474;-86
2021/04/22 01:43:05;;;;;;;3.80;2.67;;;22.30;49.30;;;;;;5048359;28;20406;-86
2021/04/22 01:45:32;;;;;;;3.40;2.63;;;22.30;49.70;;;;;;5030186;28;20407;-86
2021/04/22 01:47:59;;;;;;;3.40;2.80;;;22.10;49.20;;;;;;5049536;28;20888;-86
2021/04/22 01:50:27;;;;;;;2.67;2.10;;;22.30;49.30;;;;;;5028560;28;20422;-86
2021/04/22 01:52:54;;;;;;;3.10;2.50;;;22.30;49.30;;;;;;5045928;28;20407;-86
2021/04/22 01:55:37;;;;;;;3.37;2.77;;;22.30;49.30;;;;;;5046254;28;20407;-86
2021/04/22 01:58:05;;;;;;;3.77;2.70;;;22.20;49.30;;;;;;5028246;28;20431;-86
2021/04/22 02:00:35;;;;;;;2.33;2.07;;;22.20;49.30;;;;;;5028436;28;20422;-86
2021/04/22 02:03:01;;;;;;;3.30;2.37;;;22.30;49.40;;;;;;5046473;28;20422;-86
2021/04/22 02:05:27;;;;;;;2.80;2.40;;;22.20;49.30;;;;;;5028167;28;20928;-86
2021/04/22 02:07:53;;;;;;;2.90;2.40;;;22.20;49.50;;;;;;5045689;28;20437;-86
2021/04/22 02:10:20;;;;;;;4.53;2.60;;;22.20;49.40;;;;;;5060825;28;20190;-87
2021/04/22 02:12:46;;;;;;;2.70;2.37;;;22.20;49.50;;;;;;5045598;28;20414;-87
2021/04/22 02:15:21;;;;;;;2.60;1.90;;;22.20;49.40;;;;;;5027771;28;20515;-87
2021/04/22 02:21:09;;;;;;;2.70;1.97;;;22.20;49.30;;;;;;5045936;28;20402;-86
2021/04/22 02:23:34;;;;;;;3.30;2.13;;;22.20;49.60;;;;;;5027638;28;20513;-87
2021/04/22 02:26:00;;;;;;;3.20;2.67;;;22.20;49.60;;;;;;5062892;28;20246;-87
2021/04/22 02:28:26;;;;;;;3.63;2.60;;;22.20;49.50;;;;;;5032739;28;20210;-87
2021/04/22 02:30:52;;;;;;;3.30;2.40;;;22.20;49.70;;;;;;5049499;28;20168;-87
2021/04/22 02:33:19;;;;;;;3.27;2.33;;;22.20;49.50;;;;;;5048530;28;20202;-87
2021/04/22 02:35:49;;;;;;;3.73;2.47;;;22.20;49.40;;;;;;5031482;28;20441;-86
2021/04/22 02:38:15;;;;;;;2.33;2.13;;;22.20;49.40;;;;;;5031752;28;20485;-87
2021/04/22 02:40:43;;;;;;;2.87;2.17;;;22.20;49.50;;;;;;5031956;28;20410;-86
2021/04/22 02:43:12;;;;;;;2.83;2.43;;;22.10;49.40;;;;;;5030916;28;20421;-87
2021/04/22 02:45:42;;;;;;;2.83;2.20;;;22.20;49.40;;;;;;5046871;28;20414;-87
2021/04/22 02:48:09;;;;;;;2.93;2.20;;;22.20;49.50;;;;;;5028154;28;20430;-87
2021/04/22 02:50:38;;;;;;;2.73;2.37;;;22.10;49.40;;;;;;5027056;28;20439;-87
2021/04/22 02:53:06;;;;;;;4.53;2.13;;;22.20;49.50;;;;;;5044952;28;20416;-86
2021/04/22 02:55:33;;;;;;;2.90;2.60;;;22.20;49.50;;;;;;5027071;28;20414;-87
2021/04/22 02:57:59;;;;;;;2.67;2.20;;;22.20;49.40;;;;;;5045098;28;20441;-87
2021/04/22 03:01:05;;;;;;;2.60;2.40;;;22.20;49.70;;;;;;5045218;28;20414;-87
2021/04/22 03:03:31;;;;;;;2.47;2.27;;;22.20;49.40;;;;;;5044722;28;20174;-86
2021/04/22 03:05:57;;;;;;;2.47;2.10;;;22.10;49.70;;;;;;5026850;28;20430;-86
2021/04/22 03:08:24;;;;;;;2.40;2.10;;;22.10;49.70;;;;;;5044433;28;20178;-86
2021/04/22 03:10:50;;;;;;;2.50;1.87;;;22.20;49.50;;;;;;5026911;28;20418;-85
2021/04/22 03:13:16;;;;;;;2.10;1.90;;;22.10;49.50;;;;;;5044539;28;20450;-85
2021/04/22 03:15:43;;;;;;;2.50;2.30;;;22.10;49.70;;;;;;5026414;28;20413;-86
2021/04/22 03:18:09;;;;;;;3.40;2.23;;;22.10;49.40;;;;;;5026755;28;20433;-86
2021/04/22 03:20:35;;;;;;;2.90;2.23;;;22.10;49.40;;;;;;5026171;28;20473;-87
2021/04/22 03:23:01;;;;;;;2.63;2.43;;;22.10;49.60;;;;;;5027472;28;20892;-86
2021/04/22 03:25:27;;;;;;;2.60;2.40;;;22.10;49.70;;;;;;5029940;28;20176;-86
2021/04/22 03:27:54;;;;;;;2.57;2.17;;;22.10;49.60;;;;;;5028894;28;20183;-87
2021/04/22 03:30:23;;;;;;;3.07;2.10;;;22.10;49.50;;;;;;5028568;28;20422;-86
2021/04/22 03:32:49;;;;;;;4.33;2.10;;;22.10;49.50;;;;;;5029778;28;20498;-86
2021/04/22 03:35:16;;;;;;;2.70;2.50;;;22.10;49.90;;;;;;5027563;28;20475;-87
2021/04/22 03:37:45;;;;;;;3.00;2.17;;;22.10;49.70;;;;;;5013821;28;20416;-87
2021/04/22 03:40:13;;;;;;;2.57;2.37;;;22.10;49.60;;;;;;5031869;28;20407;-86
2021/04/22 03:42:39;;;;;;;3.10;2.17;;;22.10;49.50;;;;;;5029225;28;20502;-87
2021/04/22 03:45:07;;;;;;;3.40;2.40;;;22.10;49.40;;;;;;5011429;28;20434;-87
2021/04/22 03:47:33;;;;;;;2.27;1.80;;;22.10;49.50;;;;;;5010740;28;20454;-87
2021/04/22 03:53:21;;;;;;;2.37;2.10;;;22.20;49.50;;;;;;5028419;28;20736;-87
2021/04/22 03:55:47;;;;;;;2.23;1.83;;;22.10;49.80;;;;;;5010845;28;20419;-87
2021/04/22 03:58:13;;;;;;;2.60;2.40;;;22.10;49.80;;;;;;5011066;28;20424;-86
2021/04/22 04:00:39;;;;;;;3.47;2.40;;;22.10;49.60;;;;;;5027879;28;20173;-86
2021/04/22 04:03:05;;;;;;;2.97;2.10;;;22.10;49.60;;;;;;5027746;28;20498;-86
2021/04/22 04:05:30;;;;;;;5.10;2.20;;;22.10;49.90;;;;;;5027762;28;20415;-86
2021/04/22 04:07:56;;;;;;;3.07;2.77;;;22.10;49.90;;;;;;5028469;28;20407;-87
2021/04/22 04:10:23;;;;;;;2.73;2.53;;;22.10;49.80;;;;;;5009694;28;20226;-87
2021/04/22 04:12:49;;;;;;;2.53;2.33;;;22.00;49.60;;;;;;5028572;28;20549;-86
2021/04/22 04:15:28;;;;;;;2.20;2.00;;;22.10;49.80;;;;;;5012609;28;20470;-88
2021/04/22 04:17:54;;;;;;;2.17;1.97;;;22.00;49.60;;;;;;5010407;28;20248;-85
2021/04/22 04:20:19;;;;;;;2.60;1.97;;;22.00;49.80;;;;;;5029965;28;20411;-85
2021/04/22 04:22:47;;;;;;;4.20;2.10;;;22.00;49.80;;;;;;5030463;28;20207;-86
2021/04/22 04:25:14;;;;;;;2.87;2.23;;;22.10;49.70;;;;;;5011809;28;20184;-85
2021/04/22 04:27:40;;;;;;;2.30;2.10;;;22.00;49.50;;;;;;5011804;28;20492;-86
2021/04/22 04:30:08;;;;;;;2.40;2.03;;;21.90;49.50;;;;;;5012980;28;20415;-86
2021/04/22 04:32:33;;;;;;;2.53;2.33;;;22.10;49.60;;;;;;5027915;28;20510;-86
2021/04/22 04:34:59;;;;;;;3.30;1.90;;;22.00;49.80;;;;;;5030990;28;20486;-86
2021/04/22 04:37:25;;;;;;;2.73;2.00;;;22.00;49.60;;;;;;5031998;28;20175;-87
2021/04/22 04:39:51;;;;;;;3.07;2.50;;;22.10;49.90;;;;;;5047718;28;20622;-87
2021/04/22 04:42:18;;;;;;;4.73;2.40;;;22.10;49.80;;;;;;5046377;28;20164;-86
2021/04/22 04:44:44;;;;;;;2.10;1.63;;;22.10;49.70;;;;;;5046069;28;20422;-87
2021/04/22 04:47:09;;;;;;;3.03;2.57;;;22.10;49.80;;;;;;5028316;28;20418;-87
2021/04/22 04:49:35;;;;;;;2.93;2.30;;;22.10;49.70;;;;;;5046996;28;20180;-87
2021/04/22 04:52:01;;;;;;;2.83;2.00;;;22.10;49.90;;;;;;5061802;28;20183;-86
2021/04/22 04:54:27;;;;;;;2.40;2.20;;;22.10;49.50;;;;;;5047237;28;20238;-87
2021/04/22 04:56:53;;;;;;;3.40;2.37;;;22.10;49.70;;;;;;5028668;28;20434;-87
2021/04/22 04:59:19;;;;;;;1.90;1.70;;;22.10;49.60;;;;;;5028583;28;20182;-87
2021/04/22 05:01:44;;;;;;;1.93;1.77;;;22.10;49.60;;;;;;5029238;28;20180;-87
2021/04/22 05:04:10;;;;;;;2.33;1.97;;;22.10;49.60;;;;;;5046780;28;20172;-86
2021/04/22 05:06:37;;;;;;;1.90;1.70;;;22.20;49.40;;;;;;5029962;28;20246;-86
2021/04/22 05:09:11;;;;;;;3.23;2.20;;;22.20;49.40;;;;;;5030820;28;20179;-86
2021/04/22 05:11:36;;;;;;;2.43;2.23;;;22.20;49.30;;;;;;5050892;28;20478;-87
2021/04/22 05:14:02;;;;;;;2.00;1.80;;;22.20;49.30;;;;;;5031181;28;20466;-86
2021/04/22 05:16:28;;;;;;;2.17;1.63;;;22.20;49.30;;;;;;5032922;28;20183;-86
2021/04/22 05:18:54;;;;;;;2.50;2.30;;;22.20;49.30;;;;;;5052232;28;20408;-85
2021/04/22 05:21:19;;;;;;;3.20;1.97;;;22.20;49.20;;;;;;5048171;28;20274;-85
2021/04/22 05:23:45;;;;;;;3.77;1.70;;;22.30;49.30;;;;;;5052592;28;20163;-85
2021/04/22 05:26:11;;;;;;;2.57;2.00;;;22.20;49.20;;;;;;5051283;28;20583;-86
2021/04/22 05:28:37;;;;;;;2.20;2.00;;;22.20;49.80;;;;;;5030087;28;20239;-86
2021/04/22 05:31:03;;;;;;;2.87;2.13;;;22.30;49.30;;;;;;5032517;28;20437;-86
2021/04/22 05:33:29;;;;;;;2.07;1.83;;;22.30;49.20;;;;;;5064062;28;20567;-85
2021/04/22 05:36:00;;;;;;;3.23;2.07;;;22.30;49.20;;;;;;5048625;28;20241;-88
2021/04/22 05:38:26;;;;;;;2.57;2.10;;;22.30;49.20;;;;;;5028752;28;20524;-88
2021/04/22 05:40:51;;;;;;;2.80;2.00;;;22.30;49.20;;;;;;5048525;28;20417;-89
2021/04/22 05:43:17;;;;;;;2.73;1.70;;;22.30;49.20;;;;;;5030697;28;20194;-88
2021/04/22 05:45:43;;;;;;;2.30;1.87;;;22.30;49.20;;;;;;5028202;28;20228;-86
2021/04/22 05:48:09;;;;;;;2.03;1.70;;;22.30;49.10;;;;;;5046078;28;20178;-87
2021/04/22 05:50:35;;;;;;;3.10;1.80;;;22.30;49.10;;;;;;5049147;28;20180;-84
2021/04/22 05:53:01;;;;;;;2.30;1.67;;;22.40;49.20;;;;;;5034459;28;20457;-84
2021/04/22 05:55:27;;;;;;;2.77;2.17;;;22.40;49.20;;;;;;5032304;28;20814;-84
2021/04/22 05:57:57;;;;;;;2.60;1.90;;;22.40;49.20;;;;;;5033219;28;20411;-83
2021/04/22 06:00:26;;;;;;;3.23;2.10;;;22.40;49.20;;;;;;5050232;28;20947;-84
2021/04/22 06:02:51;;;;;;;2.83;1.97;;;22.40;49.20;;;;;;5032758;28;20483;-84
2021/04/22 06:05:20;;;;;;;1.90;1.77;;;22.40;49.20;;;;;;5032548;28;20415;-85
2021/04/22 06:07:47;;;;;;;2.93;1.80;;;22.40;49.20;;;;;;5033664;28;20175;-83
2021/04/22 06:10:14;;;;;;;2.20;1.83;;;22.40;49.10;;;;;;5030621;28;20434;-85
2021/04/22 06:12:40;;;;;;;3.00;2.00;;;22.40;49.20;;;;;;5030301;28;20522;-85
2021/04/22 06:15:07;;;;;;;1.90;1.47;;;22.40;49.20;;;;;;5031290;28;20458;-85
2021/04/22 06:17:33;;;;;;;1.90;1.53;;;22.50;49.70;;;;;;5031722;28;20239;-85
2021/04/22 06:20:11;;;;;;;1.60;1.50;;;22.50;49.10;;;;;;5050365;28;20517;-85
2021/04/22 06:22:40;;;;;;;1.73;1.33;;;22.50;49.00;;;;;;5032314;28;20418;-85
2021/04/22 06:25:07;;;;;;;1.77;1.60;;;22.60;49.10;;;;;;5033450;28;20418;-85
2021/04/22 06:27:32;;;;;;;2.47;1.47;;;22.60;49.00;;;;;;5031855;28;20422;-85
2021/04/22 06:29:59;;;;;;;2.00;1.80;;;22.60;49.10;;;;;;5051153;28;20415;-86
2021/04/22 06:32:28;;;;;;;2.23;2.03;;;22.60;49.00;;;;;;5034787;28;20175;-85
2021/04/22 06:34:54;;;;;;;1.63;1.53;;;22.70;49.10;;;;;;5050381;28;20516;-85
2021/04/22 06:37:32;;;;;;;1.53;1.37;;;22.70;49.20;;;;;;5052698;28;20437;-84
2021/04/22 06:39:57;;;;;;;2.57;1.50;;;22.70;49.20;;;;;;5032706;28;20414;-85
2021/04/22 06:42:23;;;;;;;2.87;1.60;;;22.70;49.20;;;;;;5047954;28;20425;-85
2021/04/22 06:44:50;;;;;;;1.40;1.30;;;22.70;49.20;;;;;;5051106;28;20179;-84
2021/04/22 06:47:16;;;;;;;1.57;1.40;;;22.80;49.10;;;;;;5032227;28;20486;-86
2021/04/22 06:49:42;;;;;;;2.50;1.63;;;22.80;49.10;;;;;;5031337;28;20434;-86
2021/04/22 06:52:09;;;;;;;2.23;1.60;;;22.80;49.10;;;;;;5048445;28;20233;-84
2021/04/22 06:54:38;;;;;;;1.80;1.70;;;22.80;49.10;;;;;;5048812;28;20446;-84
2021/04/22 06:57:04;;;;;;;1.40;1.30;;;22.80;49.10;;;;;;5031923;28;20433;-85
2021/04/22 06:59:30;;;;;;;2.33;1.93;;;22.80;49.10;;;;;;5032140;28;20446;-86
2021/04/22 07:01:56;;;;;;;1.53;1.40;;;22.80;49.10;;;;;;5031928;28;20543;-85
2021/04/22 07:04:22;;;;;;;1.67;1.20;;;22.80;49.20;;;;;;5031635;28;20175;-85
2021/04/22 07:06:48;;;;;;;2.63;1.70;;;22.80;49.10;;;;;;5030063;28;20433;-86
2021/04/22 07:09:22;;;;;;;1.80;1.43;;;22.90;49.20;;;;;;5048215;28;20190;-86
2021/04/22 07:11:56;;;;;;;1.60;1.33;;;22.90;49.20;;;;;;5029881;28;20187;-86
2021/04/22 07:14:23;;;;;;;2.40;1.90;;;22.90;49.20;;;;;;5047724;28;20455;-85
2021/04/22 07:17:13;;;;;;;1.60;1.50;;;22.90;49.20;;;;;;5027442;28;20813;-86
2021/04/22 07:19:44;;;;;;;2.10;1.90;;;22.90;49.20;;;;;;5020097;28;20426;-84
2021/04/22 07:22:10;;;;;;;1.90;1.50;;;22.90;49.20;;;;;;5044076;28;20930;-84
2021/04/22 07:24:38;;;;;;;2.70;2.10;;;22.90;49.20;;;;;;5011446;28;20414;-86
2021/04/22 07:27:09;;;;;;;2.23;1.40;;;22.90;49.20;;;;;;5045858;28;20617;-86
2021/04/22 07:29:40;;;;;;;2.80;2.00;;;23.00;49.30;;;;;;5030245;28;20409;-86
2021/04/22 07:32:06;;;;;;;2.03;1.40;;;22.90;49.20;;;;;;5028607;28;20415;-86
2021/04/22 07:34:32;;;;;;;1.60;1.37;;;22.90;49.30;;;;;;5029596;28;20548;-86
2021/04/22 07:37:01;;;;;;;2.00;1.70;;;23.00;49.30;;;;;;5029130;28;20446;-86
2021/04/22 07:39:28;;;;;;;1.90;1.63;;;23.00;49.40;;;;;;5029292;28;20176;-86
2021/04/22 07:41:54;;;;;;;1.93;1.40;;;23.00;49.40;;;;;;5029220;28;20434;-86
2021/04/22 07:44:21;;;;;;;2.03;1.50;;;23.00;49.40;;;;;;5047245;28;20421;-86
2021/04/22 07:46:50;;;;;;;2.60;1.80;;;23.00;49.40;;;;;;5047747;28;20474;-85
2021/04/22 07:56:28;;;;;;;1.97;1.40;;;23.00;49.40;;;;;;5047314;28;20402;-85
2021/04/22 07:58:54;;;;;;;1.57;1.20;;;23.00;49.40;;;;;;5029451;28;20430;-85
2021/04/22 08:01:20;;;;;;;2.07;1.57;;;23.00;49.50;;;;;;5029286;28;20407;-86
2021/04/22 08:03:46;;;;;;;1.60;1.50;;;23.00;49.60;;;;;;5046440;28;20234;-86
2021/04/22 08:06:44;;;;;;;1.67;1.30;;;23.00;49.50;;;;;;5029460;28;20411;-86
2021/04/22 08:23:32;;;;;;;3.10;1.30;;;23.10;49.60;;;;;;4963077;28;20441;-84
2021/04/22 08:33:07;;;;;;;1.20;1.00;;;23.10;49.70;;;;;;4925704;29;20529;-84
2021/04/22 08:35:58;;;;;;;1.40;1.10;;;23.10;50.30;;;;;;4911236;29;20509;-84
2021/04/22 08:38:49;;;;;;;;;;;;;;;;;;;;;
2021/04/22 08:41:25;;;;;;;1.50;1.17;;;23.10;49.70;;;;;;4927798;29;20463;-84
2021/04/22 08:44:05;;;;;;;;;;;;;;;;;;;;;
2021/04/22 08:46:58;;;;;;;1.47;1.37;;;23.20;49.70;;;;;;4926571;29;20949;-84
2021/04/22 08:49:27;;;;;;;1.63;1.20;;;23.20;49.70;;;;;;4926909;29;20438;-85
2021/04/22 08:51:57;;;;;;;2.13;1.27;;;23.20;49.70;;;;;;4935201;29;20483;-83
2021/04/22 08:54:51;;;;;;;2.10;1.40;;;23.20;49.60;;;;;;4951915;29;20501;-85
2021/04/22 09:01:31;;;;;;;1.50;1.30;;;23.20;49.60;;;;;;4944190;29;20497;-84
2021/04/22 09:21:11;;;;;;;1.23;1.13;;;23.20;49.70;;;;;;5007176;28;20400;-88
2021/04/22 09:27:39;;;;;;;1.50;1.07;;;23.20;49.80;;;;;;4967711;29;20405;-88
2021/04/22 09:30:15;;;;;;;2.37;1.33;;;23.20;49.70;;;;;;4965310;29;20432;-88
2021/04/22 09:32:56;;;;;;;1.37;1.17;;;23.20;49.80;;;;;;4965962;28;20501;-87
2021/04/22 09:42:12;;;;;;;1.70;1.60;;;23.30;49.80;;;;;;4948877;28;21036;-87
2021/04/22 09:44:53;;;;;;;1.43;1.33;;;23.30;49.80;;;;;;4966451;28;20409;-87
2021/04/22 09:47:22;;;;;;;1.77;1.30;;;23.20;49.80;;;;;;4967194;28;20413;-88
2021/04/22 09:50:00;;;;;;;1.40;1.10;;;23.30;49.80;;;;;;4971255;28;20421;-88
2021/04/22 09:52:38;;;;;;;4.67;1.40;;;23.30;49.80;;;;;;4986619;28;20397;-89
2021/04/22 09:55:06;;;;;;;1.40;1.13;;;23.30;49.80;;;;;;4970433;28;20468;-89
2021/04/22 09:57:36;;;;;;;4.23;1.43;;;23.30;49.80;;;;;;4986977;28;20425;-89
2021/04/22 10:00:14;;;;;;;1.80;1.33;;;23.30;49.60;;;;;;4967950;28;20421;-90
2021/04/22 10:03:04;;;;;;;1.50;1.20;;;23.40;49.70;;;;;;4984390;28;20409;-89
2021/04/22 10:05:32;;;;;;;1.30;1.03;;;23.40;49.70;;;;;;4984028;28;21058;-89
2021/04/22 10:08:09;;;;;;;1.33;1.17;;;23.30;49.60;;;;;;4968652;28;20527;-88
2021/04/22 10:11:07;;;;;;;2.50;1.23;;;23.40;49.60;;;;;;5014458;28;20414;-88
2021/04/22 10:13:48;;;;;;;3.70;0.90;;;23.40;49.60;;;;;;5026489;28;20544;-89
2021/04/22 10:16:16;;;;;;;1.50;1.17;;;23.40;49.60;;;;;;5044514;28;20433;-89
2021/04/22 10:18:45;;;;;;;2.17;1.40;;;23.40;49.60;;;;;;5011041;28;20948;-89
2021/04/22 10:21:15;;;;;;;2.23;1.00;;;23.40;50.10;;;;;;5027535;28;20426;-89
2021/04/22 10:23:50;;;;;;;1.87;1.37;;;23.40;49.50;;;;;;5044333;28;20424;-89
2021/04/22 10:26:19;;;;;;;2.77;1.23;;;23.40;49.50;;;;;;5026645;28;20468;-89
2021/04/22 10:28:51;;;;;;;1.20;0.93;;;23.40;49.50;;;;;;5027611;28;20422;-88
2021/04/22 10:31:27;;;;;;;2.13;1.00;;;23.40;49.50;;;;;;5044187;28;20464;-88
2021/04/22 10:33:58;;;;;;;1.30;1.00;;;23.40;49.50;;;;;;5012051;28;20490;-88
2021/04/22 10:36:25;;;;;;;2.73;1.27;;;23.40;49.50;;;;;;5026162;28;20471;-89
2021/04/22 10:38:57;;;;;;;2.07;1.43;;;23.40;49.50;;;;;;5026710;28;20422;-87
2021/04/22 10:41:24;;;;;;;1.60;1.03;;;23.40;49.40;;;;;;5044411;28;20456;-89
2021/04/22 10:43:54;;;;;;;1.17;0.93;;;23.40;49.40;;;;;;5009117;28;20459;-88
2021/04/22 10:46:21;;;;;;;2.93;1.47;;;23.40;49.40;;;;;;5005926;28;20424;-88
2021/04/22 10:48:47;;;;;;;1.60;1.20;;;23.40;49.40;;;;;;5005687;28;20420;-88
2021/04/22 10:51:15;;;;;;;1.53;1.00;;;23.40;49.40;;;;;;5024572;28;20423;-86
2021/04/22 10:53:43;;;;;;;1.20;0.90;;;23.40;49.40;;;;;;5008372;28;20215;-88
2021/04/22 10:56:09;;;;;;;1.87;1.07;;;23.40;49.40;;;;;;4992001;28;20453;-88
2021/04/22 10:58:42;;;;;;;1.87;0.97;;;23.40;49.40;;;;;;5006929;28;20499;-88
2021/04/22 11:01:13;;;;;;;2.83;1.37;;;23.40;49.30;;;;;;5008797;28;20411;-88
2021/04/22 11:03:45;;;;;;;1.30;1.03;;;23.40;49.40;;;;;;5025301;28;20419;-89
2021/04/22 11:06:34;;;;;;;1.40;1.20;;;23.40;49.40;;;;;;5008331;28;20465;-88
2021/04/22 11:09:27;;;;;;;1.50;1.20;;;23.40;49.40;;;;;;5009011;28;20419;-89
2021/04/22 11:11:55;;;;;;;1.13;1.03;;;23.40;49.40;;;;;;5008340;28;20426;-89
2021/04/22 11:14:42;;;;;;;1.50;1.13;;;23.40;49.50;;;;;;5025816;28;20534;-90
2021/04/22 11:17:10;;;;;;;1.63;1.20;;;23.30;49.40;;;;;;5010653;28;20439;-89
2021/04/22 11:19:42;;;;;;;2.03;1.30;;;23.30;49.50;;;;;;5009269;28;20426;-89
2021/04/22 11:22:23;;;;;;;1.40;1.27;;;23.30;49.50;;;;;;5008321;28;20431;-88
2021/04/22 11:25:00;;;;;;;1.30;1.13;;;23.30;49.50;;;;;;5025853;28;20410;-90
2021/04/22 11:27:30;;;;;;;1.40;1.07;;;23.30;49.50;;;;;;5026444;28;20463;-86
2021/04/22 11:29:59;;;;;;;1.57;1.13;;;23.30;49.60;;;;;;5024039;28;20399;-86
2021/04/22 11:32:34;;;;;;;1.40;1.03;;;23.20;49.50;;;;;;4990556;28;20442;-86
2021/04/22 11:35:18;;;;;;;2.13;0.90;;;23.20;49.50;;;;;;5006572;28;20509;-85
2021/04/22 11:37:48;;;;;;;1.20;1.10;;;23.20;49.50;;;;;;5008892;28;20446;-86
2021/04/22 11:40:20;;;;;;;1.30;0.90;;;23.20;49.60;;;;;;5008795;28;20810;-85
2021/04/22 11:42:48;;;;;;;3.90;1.20;;;23.10;49.50;;;;;;5008711;28;20431;-86
2021/04/22 11:45:17;;;;;;;1.43;0.90;;;23.20;49.60;;;;;;5008964;28;20428;-85
2021/04/22 11:47:57;;;;;;;1.73;1.13;;;23.20;49.60;;;;;;4992685;28;20419;-85
2021/04/22 11:50:30;;;;;;;3.33;0.90;;;23.20;49.60;;;;;;5009131;28;20415;-86
2021/04/22 11:52:59;;;;;;;1.93;1.23;;;23.10;49.50;;;;;;5008885;28;20407;-85
2021/04/22 11:55:31;;;;;;;1.50;1.20;;;23.10;49.60;;;;;;5010425;28;20489;-84
2021/04/22 11:58:05;;;;;;;1.47;0.90;;;23.10;49.60;;;;;;5013917;28;20469;-84
2021/04/22 12:01:04;;;;;;;1.10;1.00;;;23.10;49.60;;;;;;5014779;28;20490;-85
2021/04/22 12:03:33;;;;;;;1.30;1.10;;;23.10;49.50;;;;;;5011146;28;20501;-85
2021/04/22 12:06:06;;;;;;;1.20;0.90;;;23.10;49.60;;;;;;5027274;28;20411;-86
2021/04/22 12:08:34;;;;;;;1.73;1.00;;;23.10;49.60;;;;;;4993973;28;20449;-85
2021/04/22 12:11:07;;;;;;;1.40;1.00;;;23.10;49.60;;;;;;5009934;28;20438;-86
2021/04/22 12:13:34;;;;;;;1.57;1.20;;;23.10;49.70;;;;;;5010959;28;20812;-85
2021/04/22 12:16:04;;;;;;;1.40;1.10;;;23.10;49.70;;;;;;5010694;28;20415;-86
2021/04/22 12:18:36;;;;;;;1.30;1.10;;;23.10;49.70;;;;;;4995378;28;21019;-84
2021/04/22 12:21:24;;;;;;;1.40;1.00;;;23.10;50.20;;;;;;5028592;28;20417;-84
2021/04/22 12:23:54;;;;;;;1.37;1.00;;;23.10;49.70;;;;;;5009825;28;20499;-83
2021/04/22 12:26:25;;;;;;;3.57;1.43;;;23.00;49.70;;;;;;5008382;28;20419;-83
2021/04/22 12:28:56;;;;;;;2.23;1.70;;;23.10;49.70;;;;;;5007829;28;20574;-82
2021/04/22 12:31:27;;;;;;;3.97;1.97;;;23.10;49.70;;;;;;5008842;28;20411;-86
2021/04/22 12:33:54;;;;;;;4.00;2.63;;;23.10;49.70;;;;;;5010897;28;20546;-87
2021/04/22 12:36:23;;;;;;;4.83;2.10;;;23.00;49.60;;;;;;5027167;28;20462;-87
2021/04/22 12:38:51;;;;;;;4.80;2.20;;;23.10;49.60;;;;;;5010301;28;20414;-86
2021/04/22 12:41:19;;;;;;;4.00;2.90;;;23.10;49.70;;;;;;4993288;28;20529;-86
2021/04/22 12:43:49;;;;;;;5.53;3.90;;;23.10;49.60;;;;;;5044294;28;20434;-85
2021/04/22 12:46:18;;;;;;;4.73;2.50;;;23.10;49.60;;;;;;5047503;28;20473;-86
2021/04/22 12:48:55;;;;;;;3.13;2.27;;;23.10;49.60;;;;;;5029412;28;20445;-85
2021/04/22 12:51:21;;;;;;;6.03;2.20;;;23.10;49.60;;;;;;5030235;28;20505;-86
2021/04/22 12:53:49;;;;;;;4.17;2.30;;;23.00;49.60;;;;;;5030277;28;20461;-87
2021/04/22 12:56:16;;;;;;;5.90;3.03;;;23.00;49.60;;;;;;5029298;28;20418;-86
2021/04/22 12:58:51;;;;;;;6.33;3.00;;;23.00;49.60;;;;;;5029367;28;20418;-86
2021/04/22 13:01:25;;;;;;;3.50;2.50;;;23.10;49.60;;;;;;5030142;28;20413;-87
2021/04/22 13:03:54;;;;;;;5.03;3.37;;;23.10;49.60;;;;;;5030860;28;20506;-86
2021/04/22 13:06:21;;;;;;;5.30;2.53;;;23.00;49.60;;;;;;5046686;28;20879;-86
2021/04/22 13:08:53;;;;;;;6.43;3.83;;;23.00;49.60;;;;;;5047478;28;20477;-86
2021/04/22 13:11:26;;;;;;;7.40;3.00;;;23.00;49.60;;;;;;5046803;28;20505;-87
2021/04/22 13:13:58;;;;;;;8.07;3.27;;;23.00;49.60;;;;;;5046949;28;20493;-86
2021/04/22 13:16:27;;;;;;;4.63;2.93;;;23.00;49.60;;;;;;5046700;28;20427;-86
2021/04/22 13:19:02;;;;;;;6.17;2.90;;;23.00;49.60;;;;;;5009800;28;20426;-87
2021/04/22 13:21:36;;;;;;;5.63;2.70;;;23.00;49.60;;;;;;5031154;28;20400;-86
2021/04/22 13:24:17;;;;;;;5.47;3.30;;;23.00;49.60;;;;;;5011882;28;20447;-87
2021/04/22 13:26:53;;;;;;;5.60;3.10;;;23.00;49.60;;;;;;5028615;28;20550;-87
2021/04/22 13:29:22;;;;;;;5.50;3.20;;;23.00;49.60;;;;;;5013129;28;20423;-86
2021/04/22 13:31:54;;;;;;;5.73;3.47;;;22.90;49.60;;;;;;5028421;28;20412;-87
2021/04/22 13:34:21;;;;;;;7.17;3.60;;;23.00;49.70;;;;;;5029976;28;20454;-85
2021/04/22 13:36:51;;;;;;;6.57;3.67;;;23.00;49.70;;;;;;5012658;28;20427;-86
2021/04/22 13:39:26;;;;;;;4.80;3.30;;;23.00;49.70;;;;;;5027596;28;20418;-87
2021/04/22 13:41:52;;;;;;;4.77;2.90;;;23.00;49.70;;;;;;5030192;28;20422;-86
2021/04/22 13:44:19;;;;;;;7.27;3.40;;;23.00;49.70;;;;;;5029137;28;20454;-86
2021/04/22 13:47:02;;;;;;;6.87;3.40;;;23.00;49.70;;;;;;5028254;28;20407;-87
2021/04/22 13:49:33;;;;;;;5.10;3.40;;;23.00;49.60;;;;;;5013676;28;20964;-86
2021/04/22 13:52:11;;;;;;;4.63;3.30;;;22.90;49.60;;;;;;5029271;28;20837;-85
2021/04/22 13:54:39;;;;;;;6.47;3.00;;;23.00;49.70;;;;;;5026661;28;20450;-86
2021/04/22 13:57:14;;;;;;;5.37;2.83;;;22.90;49.60;;;;;;5029324;28;20457;-85
2021/04/22 13:59:41;;;;;;;8.13;3.80;;;23.00;49.70;;;;;;5028307;28;20409;-85
2021/04/22 14:02:11;;;;;;;3.87;3.47;;;22.90;49.60;;;;;;5027559;28;20509;-86
2021/04/22 14:04:40;;;;;;;7.73;3.60;;;22.90;49.60;;;;;;5045162;28;20432;-85
2021/04/22 14:07:06;;;;;;;5.33;3.40;;;22.90;49.70;;;;;;5046525;28;20411;-85
2021/04/22 14:09:38;;;;;;;6.00;3.57;;;22.90;49.60;;;;;;5031403;28;20425;-86